createdAt,value
2022-11-20T00:00:28.982Z,45.70
2022-11-20T00:01:29.834Z,49.90
2022-11-20T00:02:30.687Z,49.20
2022-11-20T00:03:31.560Z,44.40
2022-11-20T00:04:32.393Z,50.10
2022-11-20T00:05:33.256Z,48.40
2022-11-20T00:06:34.128Z,45.70
2022-11-20T00:07:34.945Z,43.40
2022-11-20T00:08:35.770Z,44.60
2022-11-20T00:09:36.624Z,45.10
2022-11-20T00:10:37.484Z,44.50
2022-11-20T00:11:38.338Z,43.00
2022-11-20T00:12:39.193Z,39.90
2022-11-20T00:13:40.045Z,41.50
2022-11-20T00:14:40.896Z,44.50
2022-11-20T00:15:41.755Z,41.90
2022-11-20T00:16:42.613Z,45.70
2022-11-20T00:17:43.461Z,44.50
2022-11-20T00:18:44.336Z,44.60
2022-11-20T00:19:45.169Z,40.60
2022-11-20T00:20:46.053Z,42.20
2022-11-20T00:21:46.920Z,44.60
2022-11-20T00:22:47.725Z,44.40
2022-11-20T00:23:48.589Z,39.30
2022-11-20T00:24:49.442Z,39.90
2022-11-20T00:25:50.369Z,44.70
2022-11-20T00:26:51.234Z,43.40
2022-11-20T00:27:52.089Z,40.30
2022-11-20T00:28:52.942Z,38.40
2022-11-20T00:29:53.793Z,38.70
2022-11-20T00:30:54.847Z,41.80
2022-11-20T00:31:55.208Z,38.90
2022-11-20T00:32:56.055Z,39.00
2022-11-20T00:33:56.924Z,37.90
2022-11-20T00:34:57.764Z,39.20
2022-11-20T00:35:58.847Z,41.50
2022-11-20T00:36:59.226Z,39.70
2022-11-20T00:38:00.014Z,38.40
2022-11-20T00:39:00.866Z,39.60
2022-11-20T00:40:01.723Z,41.10
2022-11-20T00:41:02.597Z,38.90
2022-11-20T00:42:03.463Z,37.60
2022-11-20T00:43:04.320Z,42.70
2022-11-20T00:44:05.183Z,36.70
2022-11-20T00:45:06.039Z,39.70
2022-11-20T00:46:06.898Z,41.70
2022-11-20T00:47:07.748Z,37.30
2022-11-20T00:48:08.683Z,39.00
2022-11-20T00:49:09.575Z,39.90
2022-11-20T00:50:10.420Z,39.90
2022-11-20T00:51:11.360Z,41.00
2022-11-20T00:52:12.231Z,40.20
2022-11-20T00:53:13.081Z,38.50
2022-11-20T00:54:13.941Z,39.90
2022-11-20T00:55:14.786Z,40.30
2022-11-20T00:56:15.674Z,39.20
2022-11-20T00:57:16.520Z,43.80
2022-11-20T00:58:17.371Z,37.90
2022-11-20T00:59:18.522Z,41.10
2022-11-20T01:00:18.886Z,40.30
2022-11-20T01:01:19.964Z,42.30
2022-11-20T01:02:20.292Z,38.30
2022-11-20T01:03:26.618Z,40.90
2022-11-20T01:04:22.932Z,40.10
2022-11-20T01:05:22.769Z,44.40
2022-11-20T01:06:23.836Z,37.60
2022-11-20T01:07:24.273Z,41.70
2022-11-20T01:08:25.102Z,39.70
2022-11-20T01:09:25.952Z,38.60
2022-11-20T01:10:26.826Z,43.30
2022-11-20T01:11:27.685Z,36.70
2022-11-20T01:12:28.537Z,39.10
2022-11-20T01:13:29.388Z,41.20
2022-11-20T01:14:30.241Z,37.40
2022-11-20T01:15:31.102Z,38.90
2022-11-20T01:16:31.957Z,39.20
2022-11-20T01:17:32.807Z,39.20
2022-11-20T01:18:33.661Z,39.80
2022-11-20T01:19:34.519Z,38.10
2022-11-20T01:20:35.371Z,36.10
2022-11-20T01:21:36.338Z,37.40
2022-11-20T01:22:37.208Z,39.30
2022-11-20T01:23:38.032Z,41.30
2022-11-20T01:24:38.885Z,42.40
2022-11-20T01:25:39.739Z,39.40
2022-11-20T01:26:40.856Z,35.60
2022-11-20T01:27:41.209Z,40.20
2022-11-20T01:28:42.058Z,36.90
2022-11-20T01:29:42.910Z,37.10
2022-11-20T01:30:43.769Z,39.00
2022-11-20T01:31:44.831Z,33.90
2022-11-20T01:32:45.221Z,38.10
2022-11-20T01:33:46.074Z,35.40
2022-11-20T01:34:46.927Z,38.20
2022-11-20T01:35:47.779Z,39.50
2022-11-20T01:36:48.643Z,39.50
2022-11-20T01:37:49.510Z,38.00
2022-11-20T01:38:50.273Z,36.90
2022-11-20T01:39:51.128Z,37.30
2022-11-20T01:40:51.992Z,36.70
2022-11-20T01:41:52.864Z,37.90
2022-11-20T01:42:53.716Z,36.90
2022-11-20T01:43:54.571Z,39.00
2022-11-20T01:44:55.418Z,37.50
2022-11-20T01:45:56.271Z,39.10
2022-11-20T01:46:57.132Z,38.90
2022-11-20T01:47:57.997Z,37.20
2022-11-20T01:48:58.843Z,36.20
2022-11-20T01:49:59.706Z,41.40
2022-11-20T01:51:00.561Z,43.40
2022-11-20T01:52:01.847Z,38.00
2022-11-20T01:53:02.219Z,41.40
2022-11-20T01:54:03.025Z,42.50
2022-11-20T01:55:03.879Z,39.40
2022-11-20T01:56:04.740Z,37.90
2022-11-20T01:57:05.622Z,38.30
2022-11-20T01:58:06.474Z,39.80
2022-11-20T01:59:07.324Z,37.40
2022-11-20T02:00:08.188Z,38.80
2022-11-20T02:01:09.096Z,40.70
2022-11-20T02:02:10.328Z,40.90
2022-11-20T02:03:10.677Z,38.40
2022-11-20T02:04:11.534Z,38.70
2022-11-20T02:05:12.395Z,35.50
2022-11-20T02:06:13.266Z,36.60
2022-11-20T02:07:14.190Z,35.40
2022-11-20T02:08:14.998Z,37.50
2022-11-20T02:09:15.795Z,39.80
2022-11-20T02:10:16.658Z,37.30
2022-11-20T02:11:17.507Z,40.70
2022-11-20T02:12:18.373Z,36.70
2022-11-20T02:13:19.217Z,37.90
2022-11-20T02:14:20.072Z,37.10
2022-11-20T02:15:20.925Z,39.50
2022-11-20T02:16:21.782Z,37.90
2022-11-20T02:17:22.643Z,40.30
2022-11-20T02:18:23.495Z,38.80
2022-11-20T02:19:24.360Z,37.10
2022-11-20T02:20:25.208Z,40.00
2022-11-20T02:21:26.075Z,37.70
2022-11-20T02:22:27.346Z,37.00
2022-11-20T02:23:27.737Z,38.60
2022-11-20T02:24:28.514Z,38.30
2022-11-20T02:25:29.371Z,36.20
2022-11-20T02:26:30.245Z,37.50
2022-11-20T02:27:31.122Z,36.10
2022-11-20T02:28:31.973Z,37.50
2022-11-20T02:29:32.825Z,36.70
2022-11-20T02:30:33.680Z,37.10
2022-11-20T02:31:34.544Z,37.10
2022-11-20T02:32:35.824Z,37.20
2022-11-20T02:33:36.166Z,36.70
2022-11-20T02:34:37.035Z,37.10
2022-11-20T02:35:37.939Z,36.90
2022-11-20T02:36:38.790Z,35.10
2022-11-20T02:37:39.652Z,36.90
2022-11-20T02:38:40.519Z,38.80
2022-11-20T02:39:41.360Z,38.90
2022-11-20T02:40:42.218Z,37.00
2022-11-20T02:41:43.070Z,36.60
2022-11-20T02:42:44.326Z,37.30
2022-11-20T02:43:44.688Z,41.40
2022-11-20T02:44:45.543Z,37.60
2022-11-20T02:45:46.394Z,35.10
2022-11-20T02:46:47.269Z,37.60
2022-11-20T02:47:48.312Z,36.60
2022-11-20T02:48:48.666Z,40.30
2022-11-20T02:49:49.536Z,38.00
2022-11-20T02:50:50.403Z,37.00
2022-11-20T02:51:51.257Z,37.80
2022-11-20T02:52:52.333Z,35.40
2022-11-20T02:53:52.711Z,36.00
2022-11-20T02:54:53.508Z,39.20
2022-11-20T02:55:54.358Z,36.20
2022-11-20T02:56:55.228Z,34.60
2022-11-20T02:57:56.108Z,35.10
2022-11-20T02:58:56.976Z,34.40
2022-11-20T02:59:57.828Z,35.00
2022-11-20T03:00:58.715Z,34.30
2022-11-20T03:01:59.543Z,35.60
2022-11-20T03:03:00.810Z,33.20
2022-11-20T03:04:01.168Z,35.00
2022-11-20T03:05:02.026Z,38.60
2022-11-20T03:06:02.890Z,36.70
2022-11-20T03:07:03.811Z,36.70
2022-11-20T03:08:04.809Z,36.30
2022-11-20T03:09:05.190Z,36.70
2022-11-20T03:10:05.962Z,33.20
2022-11-20T03:11:06.817Z,37.80
2022-11-20T03:12:07.674Z,34.40
2022-11-20T03:13:08.810Z,34.40
2022-11-20T03:14:09.363Z,35.60
2022-11-20T03:15:10.210Z,34.10
2022-11-20T03:16:11.069Z,39.10
2022-11-20T03:17:11.913Z,35.40
2022-11-20T03:18:12.776Z,33.70
2022-11-20T03:19:13.636Z,34.00
2022-11-20T03:20:14.481Z,36.70
2022-11-20T03:21:15.350Z,33.10
2022-11-20T03:22:16.206Z,36.90
2022-11-20T03:23:17.326Z,33.60
2022-11-20T03:24:17.750Z,33.80
2022-11-20T03:25:18.534Z,33.10
2022-11-20T03:26:19.383Z,33.60
2022-11-20T03:27:20.234Z,34.10
2022-11-20T03:28:21.324Z,35.80
2022-11-20T03:29:21.912Z,35.80
2022-11-20T03:30:26.243Z,36.70
2022-11-20T03:31:24.109Z,35.80
2022-11-20T03:32:23.968Z,35.40
2022-11-20T03:33:25.304Z,35.20
2022-11-20T03:34:25.654Z,36.60
2022-11-20T03:35:26.507Z,34.90
2022-11-20T03:36:27.365Z,34.20
2022-11-20T03:37:28.212Z,36.70
2022-11-20T03:38:29.303Z,33.20
2022-11-20T03:39:29.670Z,34.00
2022-11-20T03:40:30.475Z,36.00
2022-11-20T03:41:31.332Z,34.50
2022-11-20T03:42:32.181Z,32.10
2022-11-20T03:43:33.056Z,32.00
2022-11-20T03:44:33.906Z,32.30
2022-11-20T03:45:34.766Z,30.70
2022-11-20T03:46:35.619Z,32.90
2022-11-20T03:47:36.474Z,32.30
2022-11-20T03:48:37.800Z,33.00
2022-11-20T03:49:38.151Z,30.60
2022-11-20T03:50:39.005Z,32.60
2022-11-20T03:51:39.861Z,31.00
2022-11-20T03:52:40.717Z,33.50
2022-11-20T03:53:41.596Z,29.90
2022-11-20T03:54:42.486Z,33.20
2022-11-20T03:55:43.279Z,31.90
2022-11-20T03:56:44.153Z,29.80
2022-11-20T03:57:45.004Z,33.10
2022-11-20T03:58:45.888Z,33.30
2022-11-20T03:59:46.739Z,34.50
2022-11-20T04:00:47.599Z,33.40
2022-11-20T04:01:49.700Z,31.80
2022-11-20T04:02:49.064Z,31.60
2022-11-20T04:03:50.299Z,32.40
2022-11-20T04:04:50.657Z,33.00
2022-11-20T04:05:51.510Z,32.50
2022-11-20T04:06:52.365Z,31.40
2022-11-20T04:07:53.213Z,30.00
2022-11-20T04:08:54.256Z,29.60
2022-11-20T04:09:55.139Z,30.80
2022-11-20T04:10:55.912Z,31.20
2022-11-20T04:11:56.763Z,34.10
2022-11-20T04:12:57.636Z,30.60
2022-11-20T04:13:58.796Z,32.30
2022-11-20T04:14:59.165Z,26.60
2022-11-20T04:16:00.001Z,30.70
2022-11-20T04:17:00.855Z,29.50
2022-11-20T04:18:01.712Z,29.20
2022-11-20T04:19:02.797Z,29.90
2022-11-20T04:20:03.181Z,34.00
2022-11-20T04:21:04.032Z,31.00
2022-11-20T04:22:04.885Z,32.00
2022-11-20T04:23:05.757Z,29.20
2022-11-20T04:24:06.820Z,26.80
2022-11-20T04:25:07.291Z,29.60
2022-11-20T04:26:08.064Z,30.70
2022-11-20T04:27:08.922Z,29.30
2022-11-20T04:28:09.779Z,29.80
2022-11-20T04:29:10.658Z,31.80
2022-11-20T04:30:11.509Z,28.80
2022-11-20T04:31:12.377Z,29.70
2022-11-20T04:32:13.220Z,30.30
2022-11-20T04:33:14.071Z,31.40
2022-11-20T04:34:15.291Z,31.40
2022-11-20T04:35:15.656Z,31.00
2022-11-20T04:36:16.515Z,31.40
2022-11-20T04:37:17.381Z,28.80
2022-11-20T04:38:18.233Z,29.10
2022-11-20T04:39:19.441Z,29.70
2022-11-20T04:40:19.996Z,29.00
2022-11-20T04:41:20.771Z,30.50
2022-11-20T04:42:21.619Z,27.80
2022-11-20T04:43:22.471Z,28.10
2022-11-20T04:44:23.341Z,32.10
2022-11-20T04:45:24.192Z,30.10
2022-11-20T04:46:25.045Z,29.60
2022-11-20T04:47:25.896Z,29.60
2022-11-20T04:48:26.756Z,27.90
2022-11-20T04:49:27.674Z,31.10
2022-11-20T04:50:28.535Z,30.10
2022-11-20T04:51:29.383Z,28.10
2022-11-20T04:52:30.235Z,29.70
2022-11-20T04:53:31.103Z,29.30
2022-11-20T04:54:31.964Z,29.40
2022-11-20T04:55:32.929Z,30.50
2022-11-20T04:56:33.695Z,29.80
2022-11-20T04:57:34.552Z,28.20
2022-11-20T04:58:35.403Z,29.90
2022-11-20T04:59:36.282Z,29.60
2022-11-20T05:00:36.839Z,29.90
2022-11-20T05:01:37.736Z,29.90
2022-11-20T05:02:38.547Z,27.10
2022-11-20T05:03:42.279Z,30.50
2022-11-20T05:04:40.041Z,28.60
2022-11-20T05:05:40.889Z,28.00
2022-11-20T05:06:41.741Z,29.00
2022-11-20T05:07:42.661Z,29.40
2022-11-20T05:08:43.449Z,30.90
2022-11-20T05:09:44.313Z,27.20
2022-11-20T05:10:45.285Z,26.60
2022-11-20T05:11:49.173Z,30.50
2022-11-20T05:12:47.819Z,30.70
2022-11-20T05:13:47.692Z,30.50
2022-11-20T05:14:48.783Z,30.30
2022-11-20T05:15:49.136Z,30.10
2022-11-20T05:16:49.675Z,27.30
2022-11-20T05:17:50.528Z,31.10
2022-11-20T05:18:51.384Z,27.30
2022-11-20T05:19:53.304Z,29.90
2022-11-20T05:20:53.151Z,29.80
2022-11-20T05:21:54.008Z,29.30
2022-11-20T05:22:54.863Z,30.50
2022-11-20T05:23:55.717Z,27.80
2022-11-20T05:24:56.596Z,30.10
2022-11-20T05:25:59.319Z,30.40
2022-11-20T05:26:58.400Z,30.30
2022-11-20T05:27:59.260Z,29.00
2022-11-20T05:29:00.122Z,30.80
2022-11-20T05:30:01.009Z,29.00
2022-11-20T05:31:01.862Z,26.70
2022-11-20T05:32:02.727Z,28.30
2022-11-20T05:33:03.582Z,28.00
2022-11-20T05:34:04.432Z,27.80
2022-11-20T05:35:05.775Z,27.90
2022-11-20T05:36:06.127Z,30.30
2022-11-20T05:37:06.983Z,27.70
2022-11-20T05:38:07.838Z,30.30
2022-11-20T05:39:08.691Z,29.70
2022-11-20T05:40:09.780Z,30.30
2022-11-20T05:41:10.262Z,28.80
2022-11-20T05:42:11.032Z,28.80
2022-11-20T05:43:11.886Z,27.70
2022-11-20T05:44:12.751Z,31.30
2022-11-20T05:45:13.785Z,32.30
2022-11-20T05:46:14.139Z,31.50
2022-11-20T05:47:15.003Z,31.70
2022-11-20T05:48:15.857Z,30.10
2022-11-20T05:49:16.710Z,29.60
2022-11-20T05:50:17.772Z,29.60
2022-11-20T05:51:18.122Z,30.80
2022-11-20T05:52:18.980Z,32.30
2022-11-20T05:53:19.832Z,32.50
2022-11-20T05:54:20.692Z,31.10
2022-11-20T05:55:21.776Z,29.80
2022-11-20T05:56:22.235Z,30.90
2022-11-20T05:57:23.011Z,31.70
2022-11-20T05:58:23.871Z,32.00
2022-11-20T05:59:24.722Z,29.40
2022-11-20T06:00:25.605Z,32.00
2022-11-20T06:01:26.473Z,33.30
2022-11-20T06:02:27.398Z,32.30
2022-11-20T06:03:28.247Z,32.20
2022-11-20T06:04:29.106Z,33.00
2022-11-20T06:05:30.268Z,34.80
2022-11-20T06:06:30.621Z,32.10
2022-11-20T06:07:31.511Z,29.70
2022-11-20T06:08:32.334Z,31.30
2022-11-20T06:09:33.184Z,30.00
2022-11-20T06:10:34.043Z,33.10
2022-11-20T06:11:35.013Z,32.10
2022-11-20T06:12:35.802Z,32.10
2022-11-20T06:13:41.608Z,35.00
2022-11-20T06:14:38.417Z,32.90
2022-11-20T06:15:38.766Z,31.40
2022-11-20T06:16:39.122Z,30.90
2022-11-20T06:17:39.986Z,35.00
2022-11-20T06:18:40.858Z,30.10
2022-11-20T06:19:41.706Z,34.10
2022-11-20T06:20:42.565Z,33.30
2022-11-20T06:21:43.425Z,31.90
2022-11-20T06:22:44.284Z,32.50
2022-11-20T06:23:46.130Z,31.50
2022-11-20T06:24:45.658Z,32.90
2022-11-20T06:25:46.766Z,31.20
2022-11-20T06:26:47.249Z,28.00
2022-11-20T06:27:48.022Z,29.30
2022-11-20T06:28:48.889Z,28.50
2022-11-20T06:29:49.749Z,30.90
2022-11-20T06:30:50.784Z,32.00
2022-11-20T06:31:51.139Z,32.70
2022-11-20T06:32:51.992Z,31.40
2022-11-20T06:33:52.861Z,35.10
2022-11-20T06:34:53.720Z,30.70
2022-11-20T06:35:59.887Z,31.60
2022-11-20T06:36:56.530Z,34.40
2022-11-20T06:37:56.375Z,32.50
2022-11-20T06:38:57.229Z,32.40
2022-11-20T06:39:58.079Z,33.00
2022-11-20T06:40:58.943Z,35.30
2022-11-20T06:41:59.810Z,37.00
2022-11-20T06:43:00.621Z,35.50
2022-11-20T06:44:01.489Z,37.90
2022-11-20T06:45:02.351Z,34.20
2022-11-20T06:46:03.276Z,34.80
2022-11-20T06:47:04.136Z,35.00
2022-11-20T06:48:04.981Z,40.10
2022-11-20T06:49:05.836Z,40.80
2022-11-20T06:50:06.688Z,38.30
2022-11-20T06:51:07.765Z,38.10
2022-11-20T06:52:08.116Z,39.10
2022-11-20T06:53:08.977Z,40.00
2022-11-20T06:54:09.842Z,43.00
2022-11-20T06:55:10.774Z,41.80
2022-11-20T06:56:11.656Z,47.00
2022-11-20T06:57:12.527Z,43.80
2022-11-20T06:58:13.334Z,41.40
2022-11-20T06:59:14.184Z,41.50
2022-11-20T07:00:15.039Z,41.10
2022-11-20T07:01:15.985Z,41.00
2022-11-20T07:02:16.812Z,41.40
2022-11-20T07:03:17.669Z,43.10
2022-11-20T07:04:18.536Z,38.00
2022-11-20T07:05:19.395Z,34.60
2022-11-20T07:06:20.256Z,39.30
2022-11-20T07:07:21.136Z,39.90
2022-11-20T07:08:21.977Z,40.00
2022-11-20T07:09:23.216Z,41.90
2022-11-20T07:10:23.333Z,35.80
2022-11-20T07:11:24.192Z,35.60
2022-11-20T07:12:25.060Z,36.60
2022-11-20T07:13:25.891Z,38.20
2022-11-20T07:14:26.759Z,41.20
2022-11-20T07:15:27.617Z,37.50
2022-11-20T07:16:28.756Z,37.70
2022-11-20T07:17:29.109Z,38.00
2022-11-20T07:18:29.960Z,37.60
2022-11-20T07:19:30.817Z,30.50
2022-11-20T07:20:31.670Z,35.40
2022-11-20T07:21:32.757Z,33.10
2022-11-20T07:22:33.116Z,35.60
2022-11-20T07:23:33.970Z,33.80
2022-11-20T07:24:34.823Z,36.90
2022-11-20T07:25:35.720Z,37.40
2022-11-20T07:26:36.780Z,39.90
2022-11-20T07:27:37.157Z,37.60
2022-11-20T07:28:37.952Z,39.30
2022-11-20T07:29:38.817Z,35.10
2022-11-20T07:30:39.673Z,36.00
2022-11-20T07:31:40.757Z,38.80
2022-11-20T07:32:41.110Z,34.70
2022-11-20T07:33:41.998Z,36.10
2022-11-20T07:34:42.869Z,34.40
2022-11-20T07:35:43.724Z,34.70
2022-11-20T07:36:44.587Z,34.00
2022-11-20T07:37:45.440Z,35.00
2022-11-20T07:38:46.291Z,33.20
2022-11-20T07:39:47.144Z,32.00
2022-11-20T07:40:47.996Z,31.40
2022-11-20T07:41:48.857Z,31.70
2022-11-20T07:42:49.730Z,29.60
2022-11-20T07:43:50.543Z,23.00
2022-11-20T07:44:51.413Z,27.80
2022-11-20T07:45:52.268Z,27.90
2022-11-20T07:46:53.262Z,26.30
2022-11-20T07:47:53.616Z,23.70
2022-11-20T07:48:54.468Z,25.70
2022-11-20T07:49:55.386Z,29.20
2022-11-20T07:50:56.241Z,27.10
2022-11-20T07:52:01.716Z,28.90
2022-11-20T07:52:59.005Z,28.00
2022-11-20T07:53:58.855Z,29.80
2022-11-20T07:54:59.722Z,27.20
2022-11-20T07:56:00.582Z,27.20
2022-11-20T07:57:01.436Z,27.70
2022-11-20T07:58:02.327Z,26.10
2022-11-20T07:59:03.114Z,23.60
2022-11-20T08:00:03.968Z,24.90
2022-11-20T08:01:04.861Z,24.50
2022-11-20T08:02:05.764Z,23.80
2022-11-20T08:03:06.621Z,25.30
2022-11-20T08:04:07.479Z,22.00
2022-11-20T08:05:08.342Z,24.80
2022-11-20T08:06:09.193Z,20.90
2022-11-20T08:07:10.310Z,20.70
2022-11-20T08:08:10.622Z,23.60
2022-11-20T08:09:11.478Z,23.50
2022-11-20T08:10:12.348Z,23.70
2022-11-20T08:11:13.202Z,23.70
2022-11-20T08:12:14.252Z,24.00
2022-11-20T08:13:14.616Z,25.20
2022-11-20T08:14:15.452Z,22.30
2022-11-20T08:15:16.292Z,22.90
2022-11-20T08:16:17.166Z,23.20
2022-11-20T08:17:18.244Z,23.70
2022-11-20T08:18:33.903Z,25.60
2022-11-20T08:19:20.830Z,22.20
2022-11-20T08:20:20.297Z,23.20
2022-11-20T08:21:21.162Z,19.90
2022-11-20T08:22:22.243Z,22.80
2022-11-20T08:23:22.596Z,21.00
2022-11-20T08:24:23.450Z,20.70
2022-11-20T08:25:24.310Z,22.10
2022-11-20T08:26:25.171Z,19.10
2022-11-20T08:27:26.247Z,19.30
2022-11-20T08:28:26.623Z,19.40
2022-11-20T08:29:27.435Z,19.80
2022-11-20T08:30:28.291Z,21.40
2022-11-20T08:31:29.193Z,19.90
2022-11-20T08:32:30.074Z,19.50
2022-11-20T08:33:30.968Z,19.30
2022-11-20T08:34:31.776Z,18.60
2022-11-20T08:35:32.658Z,19.00
2022-11-20T08:36:33.513Z,18.10
2022-11-20T08:37:34.743Z,18.50
2022-11-20T08:38:35.096Z,16.60
2022-11-20T08:39:35.948Z,17.60
2022-11-20T08:40:36.807Z,18.10
2022-11-20T08:41:37.673Z,17.50
2022-11-20T08:42:38.746Z,20.00
2022-11-20T08:43:39.166Z,16.60
2022-11-20T08:44:39.952Z,17.70
2022-11-20T08:45:40.803Z,17.40
2022-11-20T08:46:41.693Z,17.80
2022-11-20T08:47:42.762Z,17.20
2022-11-20T08:48:43.123Z,16.50
2022-11-20T08:49:43.977Z,17.60
2022-11-20T08:50:44.830Z,19.10
2022-11-20T08:51:45.700Z,16.30
2022-11-20T08:52:46.746Z,16.70
2022-11-20T08:53:47.103Z,16.30
2022-11-20T08:54:47.959Z,17.40
2022-11-20T08:55:48.806Z,16.30
2022-11-20T08:56:49.658Z,16.50
2022-11-20T08:57:51.190Z,17.20
2022-11-20T08:59:31.600Z,16.40
2022-11-20T09:00:05.942Z,16.80
2022-11-20T09:00:53.596Z,17.30
2022-11-20T09:01:53.406Z,16.40
2022-11-20T09:02:54.264Z,15.70
2022-11-20T09:03:55.129Z,16.30
2022-11-20T09:04:56.001Z,17.20
2022-11-20T09:05:56.853Z,17.40
2022-11-20T09:06:57.771Z,16.10
2022-11-20T09:07:58.745Z,15.50
2022-11-20T09:09:03.497Z,16.20
2022-11-20T09:10:22.518Z,15.70
2022-11-20T09:11:01.605Z,16.00
2022-11-20T09:12:01.454Z,15.70
2022-11-20T09:13:02.763Z,16.10
2022-11-20T09:14:03.197Z,15.00
2022-11-20T09:15:03.958Z,14.70
2022-11-20T09:16:04.810Z,14.30
2022-11-20T09:17:05.663Z,14.60
2022-11-20T09:18:06.747Z,14.30
2022-11-20T09:19:34.032Z,15.20
2022-11-20T09:20:08.851Z,15.40
2022-11-20T09:21:08.807Z,13.40
2022-11-20T09:22:09.675Z,13.90
2022-11-20T09:23:10.747Z,15.50
2022-11-20T09:24:11.102Z,14.20
2022-11-20T09:25:11.950Z,14.50
2022-11-20T09:26:12.804Z,13.80
2022-11-20T09:27:13.653Z,14.80
2022-11-20T09:28:14.518Z,14.40
2022-11-20T09:29:15.382Z,13.60
2022-11-20T09:30:16.192Z,15.60
2022-11-20T09:31:17.042Z,13.90
2022-11-20T09:32:17.891Z,13.90
2022-11-20T09:33:18.748Z,14.70
2022-11-20T09:34:19.599Z,16.20
2022-11-20T09:35:20.452Z,14.60
2022-11-20T09:36:21.302Z,15.20
2022-11-20T09:37:22.186Z,15.20
2022-11-20T09:38:23.046Z,15.20
2022-11-20T09:39:24.185Z,15.00
2022-11-20T09:40:24.765Z,16.90
2022-11-20T09:41:25.610Z,15.10
2022-11-20T09:42:26.470Z,15.00
2022-11-20T09:43:32.279Z,16.60
2022-11-20T09:44:29.008Z,16.30
2022-11-20T09:45:28.805Z,14.80
2022-11-20T09:46:29.656Z,15.60
2022-11-20T09:47:30.516Z,17.90
2022-11-20T09:48:31.762Z,15.60
2022-11-20T09:49:32.968Z,15.90
2022-11-20T09:50:32.919Z,15.90
2022-11-20T09:51:33.769Z,17.10
2022-11-20T09:52:34.620Z,17.40
2022-11-20T09:53:35.755Z,17.60
2022-11-20T09:54:36.103Z,17.50
2022-11-20T09:55:36.958Z,18.90
2022-11-20T09:56:37.884Z,15.60
2022-11-20T09:57:38.668Z,16.10
2022-11-20T09:58:39.531Z,17.70
2022-11-20T09:59:40.399Z,16.70
2022-11-20T10:00:41.220Z,16.90
2022-11-20T10:01:42.052Z,15.90
2022-11-20T10:02:42.905Z,16.10
2022-11-20T10:03:43.789Z,14.80
2022-11-20T10:04:44.631Z,16.50
2022-11-20T10:05:45.489Z,16.30
2022-11-20T10:06:49.334Z,15.10
2022-11-20T10:07:48.153Z,15.80
2022-11-20T10:08:48.251Z,16.00
2022-11-20T10:09:48.609Z,15.40
2022-11-20T10:10:52.593Z,16.80
2022-11-20T10:11:50.107Z,14.70
2022-11-20T10:12:50.963Z,15.60
2022-11-20T10:13:52.253Z,15.20
2022-11-20T10:14:52.620Z,15.60
2022-11-20T10:15:53.415Z,16.30
2022-11-20T10:16:54.267Z,14.90
2022-11-20T10:17:55.115Z,17.50
2022-11-20T10:18:55.975Z,14.30
2022-11-20T10:19:56.839Z,13.40
2022-11-20T10:20:57.694Z,14.80
2022-11-20T10:21:58.546Z,15.40
2022-11-20T10:22:59.397Z,16.60
2022-11-20T10:24:00.759Z,16.60
2022-11-20T10:25:01.107Z,15.50
2022-11-20T10:26:01.985Z,16.90
2022-11-20T10:27:02.813Z,15.10
2022-11-20T10:28:03.671Z,15.50
2022-11-20T10:29:08.692Z,15.70
2022-11-20T10:30:05.349Z,14.90
2022-11-20T10:31:06.194Z,14.30
2022-11-20T10:32:07.046Z,15.30
2022-11-20T10:33:07.909Z,15.20
2022-11-20T10:34:12.797Z,15.10
2022-11-20T10:35:09.442Z,15.60
2022-11-20T10:36:10.299Z,16.40
2022-11-20T10:37:11.187Z,14.70
2022-11-20T10:38:12.041Z,15.50
2022-11-20T10:39:13.254Z,16.20
2022-11-20T10:40:13.608Z,14.70
2022-11-20T10:41:14.464Z,17.70
2022-11-20T10:42:15.314Z,15.50
2022-11-20T10:43:16.176Z,15.30
2022-11-20T10:44:17.252Z,13.60
2022-11-20T10:45:17.624Z,14.90
2022-11-20T10:46:18.471Z,14.00
2022-11-20T10:47:19.325Z,12.60
2022-11-20T10:48:20.201Z,12.90
2022-11-20T10:49:21.588Z,15.70
2022-11-20T10:50:22.860Z,16.40
2022-11-20T10:51:22.746Z,14.40
2022-11-20T10:52:23.596Z,13.90
2022-11-20T10:53:24.450Z,13.80
2022-11-20T10:54:25.753Z,15.90
2022-11-20T10:55:26.117Z,16.00
2022-11-20T10:56:26.971Z,15.10
2022-11-20T10:57:27.821Z,13.00
2022-11-20T10:58:28.677Z,13.60
2022-11-20T10:59:29.755Z,15.00
2022-11-20T11:00:30.122Z,14.30
2022-11-20T11:01:30.928Z,15.80
2022-11-20T11:02:31.780Z,15.40
2022-11-20T11:03:32.629Z,14.20
2022-11-20T11:04:33.771Z,15.30
2022-11-20T11:05:34.144Z,13.00
2022-11-20T11:06:34.994Z,14.10
2022-11-20T11:07:35.902Z,14.30
2022-11-20T11:08:36.709Z,15.10
2022-11-20T11:09:37.751Z,15.40
2022-11-20T11:10:38.110Z,15.80
2022-11-20T11:11:38.972Z,17.10
2022-11-20T11:12:39.826Z,17.30
2022-11-20T11:13:40.676Z,15.20
2022-11-20T11:14:41.540Z,16.00
2022-11-20T11:15:42.540Z,16.00
2022-11-20T11:16:43.338Z,16.30
2022-11-20T11:17:44.197Z,15.30
2022-11-20T11:18:45.041Z,15.10
2022-11-20T11:19:46.252Z,14.40
2022-11-20T11:20:46.601Z,15.40
2022-11-20T11:21:52.283Z,14.90
2022-11-20T11:22:49.196Z,17.20
2022-11-20T11:23:49.078Z,15.30
2022-11-20T11:24:50.247Z,17.80
2022-11-20T11:25:50.600Z,17.30
2022-11-20T11:26:51.452Z,16.80
2022-11-20T11:27:52.309Z,16.30
2022-11-20T11:28:53.168Z,17.20
2022-11-20T11:29:54.248Z,16.30
2022-11-20T11:30:54.617Z,17.70
2022-11-20T11:31:55.412Z,16.50
2022-11-20T11:32:56.260Z,16.80
2022-11-20T11:33:57.117Z,17.00
2022-11-20T11:34:57.977Z,16.70
2022-11-20T11:35:58.823Z,17.10
2022-11-20T11:36:59.674Z,17.20
2022-11-20T11:38:00.526Z,17.30
2022-11-20T11:39:01.375Z,18.00
2022-11-20T11:40:27.909Z,17.50
2022-11-20T11:41:03.981Z,20.00
2022-11-20T11:42:03.831Z,16.80
2022-11-20T11:43:04.681Z,16.00
2022-11-20T11:44:05.533Z,17.70
2022-11-20T11:45:06.393Z,16.70
2022-11-20T11:46:07.259Z,17.40
2022-11-20T11:47:08.061Z,20.70
2022-11-20T11:48:08.913Z,18.20
2022-11-20T11:49:09.767Z,19.20
2022-11-20T11:50:10.660Z,16.30
2022-11-20T11:51:11.529Z,17.10
2022-11-20T11:52:12.386Z,17.40
2022-11-20T11:53:13.234Z,19.70
2022-11-20T11:54:14.085Z,18.10
2022-11-20T11:55:15.246Z,20.20
2022-11-20T11:56:15.601Z,20.00
2022-11-20T11:57:16.451Z,16.90
2022-11-20T11:58:17.303Z,19.20
2022-11-20T11:59:18.150Z,17.50
2022-11-20T12:00:19.246Z,19.70
2022-11-20T12:01:19.637Z,19.70
2022-11-20T12:02:20.473Z,22.90
2022-11-20T12:03:21.316Z,17.20
2022-11-20T12:04:22.191Z,17.30
2022-11-20T12:05:23.044Z,17.80
2022-11-20T12:06:23.890Z,17.20
2022-11-20T12:07:45.574Z,16.60
2022-11-20T12:08:26.542Z,19.00
2022-11-20T12:09:26.354Z,15.90
2022-11-20T12:10:27.246Z,15.80
2022-11-20T12:11:28.095Z,16.60
2022-11-20T12:12:28.990Z,16.80
2022-11-20T12:13:29.845Z,15.70
2022-11-20T12:14:30.701Z,16.70
2022-11-20T12:15:31.743Z,16.10
2022-11-20T12:16:32.112Z,16.30
2022-11-20T12:17:32.908Z,16.10
2022-11-20T12:18:33.757Z,15.20
2022-11-20T12:19:34.615Z,14.30
2022-11-20T12:20:35.470Z,14.30
2022-11-20T12:21:36.327Z,14.80
2022-11-20T12:22:37.177Z,13.60
2022-11-20T12:23:38.040Z,14.30
2022-11-20T12:24:38.898Z,14.40
2022-11-20T12:25:40.261Z,15.70
2022-11-20T12:26:40.625Z,15.90
2022-11-20T12:27:41.480Z,14.40
2022-11-20T12:28:42.344Z,15.70
2022-11-20T12:29:43.196Z,15.90
2022-11-20T12:30:44.242Z,14.50
2022-11-20T12:31:44.617Z,16.20
2022-11-20T12:32:45.415Z,16.40
2022-11-20T12:33:46.285Z,16.30
2022-11-20T12:34:47.136Z,16.20
2022-11-20T12:35:48.260Z,15.90
2022-11-20T12:36:48.618Z,15.20
2022-11-20T12:37:49.469Z,16.80
2022-11-20T12:38:50.320Z,15.30
2022-11-20T12:39:51.173Z,16.00
2022-11-20T12:40:52.242Z,18.80
2022-11-20T12:41:52.593Z,19.60
2022-11-20T12:42:53.486Z,15.90
2022-11-20T12:43:54.373Z,15.70
2022-11-20T12:44:55.233Z,17.00
2022-11-20T12:45:56.245Z,16.50
2022-11-20T12:46:56.627Z,16.40
2022-11-20T12:47:57.431Z,15.00
2022-11-20T12:48:58.285Z,16.20
2022-11-20T12:49:59.141Z,17.30
2022-11-20T12:51:14.459Z,16.60
2022-11-20T12:52:01.501Z,16.80
2022-11-20T12:53:01.356Z,18.40
2022-11-20T12:54:02.223Z,15.20
2022-11-20T12:55:03.068Z,16.20
2022-11-20T12:56:04.241Z,16.90
2022-11-20T12:57:04.602Z,17.60
2022-11-20T12:58:05.456Z,18.20
2022-11-20T12:59:06.307Z,16.60
2022-11-20T13:00:07.241Z,15.90
2022-11-20T13:01:08.316Z,17.30
2022-11-20T13:02:08.619Z,16.10
2022-11-20T13:03:09.432Z,18.00